Time;durP1;ratioP1;P1;durP2;ratioP2;P2;SDS_P1;SDS_P2;PMS_P1;PMS_P2;Temp;Humidity;BMP_temperature;BMP_pressure;BME280_temperature;BME280_humidity;BME280_pressure;Samples;Min_cycle;Max_cycle;Signal;HPM_P1;HPM_P2
2022/12/25 00:00:33;;;;;;;15.70;6.83;;;6.40;99.90;;;;;;5031063;28;20820;-68
2022/12/25 00:02:59;;;;;;;18.93;7.97;;;6.30;99.90;;;;;;5031016;28;20418;-68
2022/12/25 00:05:25;;;;;;;17.43;7.20;;;6.30;99.90;;;;;;5030678;28;20449;-69
2022/12/25 00:07:51;;;;;;;13.33;7.10;;;6.30;99.90;;;;;;5026297;28;20215;-67
2022/12/25 00:10:16;;;;;;;19.30;7.00;;;6.20;99.90;;;;;;5030683;28;20187;-68
2022/12/25 00:12:42;;;;;;;13.30;6.10;;;6.20;99.90;;;;;;5030877;28;20513;-68
2022/12/25 00:15:08;;;;;;;12.33;7.23;;;6.10;99.90;;;;;;5030659;28;20207;-68
2022/12/25 00:17:34;;;;;;;12.90;6.17;;;6.10;99.90;;;;;;5026114;28;20193;-68
2022/12/25 00:19:59;;;;;;;9.40;5.93;;;6.10;99.90;;;;;;5028226;28;20524;-68
2022/12/25 00:22:25;;;;;;;13.77;6.80;;;6.00;99.90;;;;;;5031097;28;20639;-68
2022/12/25 00:24:50;;;;;;;16.30;9.13;;;6.00;99.90;;;;;;5030788;28;20191;-68
2022/12/25 00:27:16;;;;;;;15.67;7.20;;;6.00;99.90;;;;;;5030781;28;20175;-68
2022/12/25 00:29:42;;;;;;;19.23;7.13;;;6.00;99.90;;;;;;5030735;28;20657;-67
2022/12/25 00:32:07;;;;;;;12.30;6.60;;;5.90;99.90;;;;;;5030721;28;20225;-68
2022/12/25 00:34:33;;;;;;;26.53;9.87;;;5.80;99.90;;;;;;5025868;28;20200;-68
2022/12/25 00:36:59;;;;;;;12.60;7.50;;;5.70;99.90;;;;;;5028048;28;20179;-67
2022/12/25 00:39:25;;;;;;;13.70;7.80;;;5.70;99.90;;;;;;5026541;28;20207;-69
2022/12/25 00:44:35;;;;;;;17.03;7.03;;;5.80;99.90;;;;;;5025080;28;20257;-68
2022/12/25 00:47:01;;;;;;;22.07;7.07;;;5.70;99.90;;;;;;5022554;28;20490;-68
2022/12/25 00:49:27;;;;;;;15.30;7.40;;;5.60;99.90;;;;;;5030546;28;20638;-69
2022/12/25 00:51:53;;;;;;;11.97;7.30;;;5.60;99.90;;;;;;5023548;28;20180;-68
2022/12/25 00:54:19;;;;;;;20.87;8.13;;;5.50;99.90;;;;;;5024188;28;20209;-69
2022/12/25 00:56:45;;;;;;;25.53;9.03;;;5.50;99.90;;;;;;5031828;28;20547;-69
2022/12/25 00:59:12;;;;;;;16.27;7.90;;;5.50;99.90;;;;;;5034104;28;20830;-69
2022/12/25 01:01:38;;;;;;;16.20;7.30;;;5.50;99.90;;;;;;5033497;28;20466;-68
2022/12/25 01:04:04;;;;;;;12.53;7.87;;;5.40;99.90;;;;;;5034212;28;20448;-69
2022/12/25 01:06:30;;;;;;;16.40;7.40;;;5.50;99.90;;;;;;5032471;28;20414;-68
2022/12/25 01:11:41;;;;;;;24.87;7.03;;;5.50;99.90;;;;;;5031970;28;20186;-68
2022/12/25 01:14:06;;;;;;;15.10;6.40;;;5.60;99.90;;;;;;5032384;28;20513;-69
2022/12/25 01:16:32;;;;;;;12.73;5.70;;;5.70;99.90;;;;;;5033839;28;20695;-68
2022/12/25 01:18:57;;;;;;;12.00;6.57;;;5.50;99.90;;;;;;5033719;28;20839;-68
2022/12/25 01:21:23;;;;;;;13.20;6.90;;;5.80;99.90;;;;;;5033823;28;20208;-68
2022/12/25 01:23:51;;;;;;;17.60;8.40;;;5.70;99.90;;;;;;5026528;28;20245;-68
2022/12/25 01:26:18;;;;;;;18.33;8.03;;;5.60;99.90;;;;;;5033828;28;20313;-68
2022/12/25 01:28:44;;;;;;;21.23;9.30;;;5.70;99.90;;;;;;5033969;28;20415;-69
2022/12/25 01:31:11;;;;;;;17.67;7.77;;;5.80;99.90;;;;;;5033733;28;20780;-69
2022/12/25 01:33:38;;;;;;;17.33;8.60;;;5.90;99.90;;;;;;5033776;28;20179;-69
2022/12/25 01:36:15;;;;;;;18.13;7.83;;;5.90;99.90;;;;;;5033775;28;20521;-67
2022/12/25 01:38:42;;;;;;;20.87;8.80;;;5.70;99.90;;;;;;5029776;28;20896;-68
2022/12/25 01:41:08;;;;;;;19.60;7.37;;;5.80;99.90;;;;;;5033507;28;20473;-68
2022/12/25 01:43:33;;;;;;;13.87;6.93;;;5.70;99.90;;;;;;5033650;28;20461;-68
2022/12/25 01:45:59;;;;;;;20.30;8.30;;;5.60;99.90;;;;;;5032605;28;20485;-68
2022/12/25 01:48:32;;;;;;;17.80;7.90;;;5.80;99.90;;;;;;5026265;28;20318;-68
2022/12/25 01:51:05;;;;;;;17.33;7.60;;;5.60;99.90;;;;;;5033151;28;20179;-68
2022/12/25 01:53:31;;;;;;;16.80;8.47;;;5.40;99.90;;;;;;5027138;28;20789;-69
2022/12/25 01:56:01;;;;;;;16.20;8.20;;;5.50;99.90;;;;;;5033258;28;20418;-68
2022/12/25 01:58:28;;;;;;;16.97;7.10;;;5.60;99.90;;;;;;5032940;28;20175;-68
2022/12/25 02:00:53;;;;;;;12.93;6.70;;;5.40;99.90;;;;;;5033062;28;20606;-68
2022/12/25 02:03:20;;;;;;;20.07;7.13;;;5.60;99.90;;;;;;5027395;28;20497;-69
2022/12/25 02:05:47;;;;;;;21.13;8.20;;;5.60;99.90;;;;;;5032946;28;20566;-68
2022/12/25 02:08:15;;;;;;;20.23;7.73;;;5.70;99.90;;;;;;5030256;28;20429;-68
2022/12/25 02:10:43;;;;;;;16.07;7.20;;;5.50;99.90;;;;;;5028107;28;20450;-69
2022/12/25 02:13:11;;;;;;;13.70;7.17;;;5.60;99.90;;;;;;5014911;28;20501;-67
2022/12/25 02:15:51;;;;;;;16.57;7.13;;;5.60;99.90;;;;;;5012090;28;20448;-68
2022/12/25 02:18:42;;;;;;;11.60;6.90;;;5.40;99.90;;;;;;5032603;28;20483;-68
2022/12/25 02:21:27;;;;;;;16.23;7.47;;;5.30;99.90;;;;;;5031146;28;20461;-67
2022/12/25 02:24:34;;;;;;;15.80;7.40;;;5.20;99.90;;;;;;5030525;28;20929;-68
2022/12/25 02:27:20;;;;;;;17.23;8.53;;;5.20;99.90;;;;;;5026729;28;20955;-67
2022/12/25 02:30:03;;;;;;;15.93;8.03;;;5.30;99.90;;;;;;5031492;28;20497;-68
2022/12/25 02:32:44;;;;;;;13.10;6.73;;;5.30;99.90;;;;;;5025270;28;20417;-68
2022/12/25 02:35:26;;;;;;;11.97;7.50;;;5.30;99.90;;;;;;5031659;28;20461;-69
2022/12/25 02:38:01;;;;;;;20.23;8.80;;;5.10;99.90;;;;;;5031800;28;20402;-68
2022/12/25 02:40:55;;;;;;;21.87;8.50;;;5.30;99.90;;;;;;5024779;28;20452;-68
2022/12/25 03:12:37;;;;;;;18.87;6.50;;;5.00;99.90;;;;;;4976779;28;20437;-65
2022/12/25 03:17:50;;;;;;;23.13;9.03;;;5.00;99.90;;;;;;5050581;28;20818;-66
2022/12/25 03:28:28;;;;;;;19.77;7.63;;;5.10;99.90;;;;;;5047820;28;20443;-67
2022/12/25 03:31:12;;;;;;;17.37;6.20;;;4.90;99.90;;;;;;5050544;28;20417;-68
2022/12/25 03:37:08;;;;;;;15.63;7.70;;;4.90;99.90;;;;;;5050130;28;20455;-66
2022/12/25 04:37:57;;;;;;;22.30;8.70;;;4.70;99.90;;;;;;5053259;28;20429;-66
2022/12/25 04:40:22;;;;;;;22.20;9.37;;;4.50;99.90;;;;;;5045780;28;20441;-66
2022/12/25 04:42:52;;;;;;;14.83;8.20;;;4.50;99.90;;;;;;5053198;28;20167;-66
2022/12/25 04:45:18;;;;;;;16.73;8.57;;;4.50;99.90;;;;;;5053335;28;20179;-66
2022/12/25 04:47:43;;;;;;;15.73;7.50;;;4.40;99.90;;;;;;5053065;28;20829;-65
2022/12/25 04:50:10;;;;;;;14.87;7.93;;;4.40;99.90;;;;;;5052765;28;20581;-65
2022/12/25 04:52:38;;;;;;;15.17;8.00;;;4.60;99.90;;;;;;5053109;28;20172;-66
2022/12/25 04:55:05;;;;;;;17.77;7.50;;;4.50;99.90;;;;;;5052777;28;20401;-66
2022/12/25 04:57:31;;;;;;;28.47;8.37;;;4.40;99.90;;;;;;5051340;28;20429;-66
2022/12/25 04:59:57;;;;;;;22.60;8.17;;;4.70;99.90;;;;;;5052986;28;20504;-66
2022/12/25 05:02:22;;;;;;;18.47;8.60;;;4.60;99.90;;;;;;5053206;28;20772;-66
2022/12/25 05:04:48;;;;;;;15.40;9.00;;;4.50;99.90;;;;;;5053761;28;20195;-66
2022/12/25 05:07:14;;;;;;;21.60;9.30;;;4.30;99.90;;;;;;5052589;28;20696;-66
2022/12/25 05:09:42;;;;;;;15.77;8.00;;;4.20;99.90;;;;;;5052992;28;20155;-66
2022/12/25 05:12:09;;;;;;;23.97;10.10;;;4.20;99.90;;;;;;5052776;28;20557;-66
2022/12/25 05:14:34;;;;;;;19.00;8.43;;;4.20;99.90;;;;;;5053129;28;20406;-66
2022/12/25 05:17:00;;;;;;;18.10;11.73;;;4.20;99.90;;;;;;5044936;28;20469;-66
2022/12/25 05:19:26;;;;;;;16.37;8.33;;;4.20;99.90;;;;;;5053243;28;20649;-66
2022/12/25 05:21:52;;;;;;;13.03;7.93;;;4.20;99.90;;;;;;5052822;28;20190;-66
2022/12/25 05:24:18;;;;;;;16.63;9.50;;;4.20;99.90;;;;;;5052687;28;20413;-67
2022/12/25 05:26:44;;;;;;;15.73;8.77;;;4.10;99.90;;;;;;5052144;28;20433;-67
2022/12/25 05:29:09;;;;;;;16.90;8.43;;;4.10;99.90;;;;;;5033944;28;20421;-66
2022/12/25 05:31:35;;;;;;;18.83;8.37;;;4.00;99.90;;;;;;5052433;28;20258;-65
2022/12/25 05:34:00;;;;;;;15.77;7.60;;;4.00;99.90;;;;;;5052312;28;20246;-66
2022/12/25 05:36:26;;;;;;;15.63;8.10;;;4.00;99.90;;;;;;5052556;28;20194;-67
2022/12/25 05:38:52;;;;;;;17.63;8.87;;;4.30;99.90;;;;;;5052382;28;20250;-66
2022/12/25 05:41:17;;;;;;;17.20;9.20;;;4.30;99.90;;;;;;5052137;28;20214;-65
2022/12/25 05:43:43;;;;;;;17.03;9.73;;;4.20;99.90;;;;;;5052059;28;20246;-65
2022/12/25 05:46:09;;;;;;;17.20;7.07;;;4.30;99.90;;;;;;5051964;28;20191;-66
2022/12/25 05:48:36;;;;;;;16.00;7.73;;;4.20;99.90;;;;;;5052085;28;20178;-65
2022/12/25 05:51:06;;;;;;;23.30;9.03;;;4.50;99.90;;;;;;5052013;28;20405;-66
2022/12/25 05:53:32;;;;;;;17.60;7.33;;;4.30;99.90;;;;;;5052058;28;20492;-67
2022/12/25 05:56:02;;;;;;;24.23;7.40;;;4.10;99.90;;;;;;5051656;28;20516;-66
2022/12/25 05:58:28;;;;;;;20.30;8.53;;;4.00;99.90;;;;;;5052079;28;20592;-65
2022/12/25 06:00:54;;;;;;;19.73;7.90;;;4.00;99.90;;;;;;5051770;28;20879;-66
2022/12/25 06:03:19;;;;;;;17.63;7.57;;;3.90;99.90;;;;;;5051933;28;20444;-66
2022/12/25 06:05:45;;;;;;;25.60;8.70;;;3.90;99.90;;;;;;5051515;28;20213;-65
2022/12/25 06:08:10;;;;;;;13.67;7.57;;;3.80;99.90;;;;;;5051533;28;20329;-65
2022/12/25 06:10:36;;;;;;;14.10;9.07;;;3.80;99.90;;;;;;5051319;28;20182;-67
2022/12/25 06:13:02;;;;;;;13.60;6.97;;;3.80;99.90;;;;;;5044393;28;20176;-67
2022/12/25 06:15:28;;;;;;;18.33;7.60;;;3.80;99.90;;;;;;5051542;28;20549;-65
2022/12/25 06:17:54;;;;;;;14.67;7.67;;;3.80;99.90;;;;;;5051205;28;20441;-66
2022/12/25 06:20:19;;;;;;;23.33;7.97;;;3.80;99.90;;;;;;5051183;28;20269;-66
2022/12/25 06:22:45;;;;;;;21.03;7.57;;;3.80;99.90;;;;;;5051251;28;20242;-66
2022/12/25 06:25:10;;;;;;;22.50;11.17;;;3.80;99.90;;;;;;5050872;28;20167;-66
2022/12/25 06:27:36;;;;;;;19.20;7.70;;;3.80;99.90;;;;;;5051228;28;20700;-65
2022/12/25 06:30:02;;;;;;;19.13;7.43;;;3.80;99.90;;;;;;5051042;28;20167;-66
2022/12/25 06:32:28;;;;;;;21.50;7.47;;;3.80;99.90;;;;;;5051210;28;20170;-66
2022/12/25 06:34:54;;;;;;;21.17;8.60;;;3.80;99.90;;;;;;5051218;28;20469;-66
2022/12/25 06:37:19;;;;;;;15.23;9.27;;;3.80;99.90;;;;;;5038169;28;20222;-65
2022/12/25 06:39:46;;;;;;;23.50;9.17;;;3.80;99.90;;;;;;5050655;28;20240;-65
2022/12/25 06:42:12;;;;;;;14.07;8.40;;;3.80;99.90;;;;;;5047432;28;20175;-66
2022/12/25 06:44:37;;;;;;;15.83;7.70;;;3.80;99.90;;;;;;5051096;28;20923;-66
2022/12/25 06:47:03;;;;;;;22.27;8.70;;;3.80;99.90;;;;;;5050791;28;20191;-66
2022/12/25 06:49:29;;;;;;;17.30;7.63;;;3.80;99.90;;;;;;5046637;28;20397;-67
2022/12/25 06:51:54;;;;;;;14.53;7.70;;;3.90;99.90;;;;;;5052373;28;20171;-66
2022/12/25 06:54:20;;;;;;;15.50;8.40;;;3.90;99.90;;;;;;5051413;28;20197;-66
2022/12/25 06:56:46;;;;;;;13.90;8.07;;;3.80;99.90;;;;;;5050874;28;20238;-66
2022/12/25 06:59:11;;;;;;;19.80;7.93;;;3.80;99.90;;;;;;5050458;28;20182;-65
2022/12/25 07:01:43;;;;;;;16.00;9.63;;;3.90;99.90;;;;;;5050735;28;20463;-66
2022/12/25 07:04:16;;;;;;;24.87;9.60;;;3.80;99.90;;;;;;5050520;28;20167;-66
2022/12/25 07:06:41;;;;;;;20.03;9.60;;;3.70;99.90;;;;;;5050236;28;20877;-65
2022/12/25 07:09:07;;;;;;;21.83;10.10;;;3.80;99.90;;;;;;5032279;28;20604;-66
2022/12/25 07:11:33;;;;;;;12.73;7.80;;;3.70;99.90;;;;;;5050643;28;20175;-66
2022/12/25 07:13:58;;;;;;;20.80;8.73;;;3.60;99.90;;;;;;5048937;28;20223;-65
2022/12/25 07:16:24;;;;;;;19.60;10.77;;;3.70;99.90;;;;;;5050151;28;20618;-65
2022/12/25 07:18:49;;;;;;;22.20;10.50;;;3.70;99.90;;;;;;5050273;28;20244;-65
2022/12/25 07:21:18;;;;;;;19.90;11.37;;;3.70;99.90;;;;;;5049853;28;20277;-65
2022/12/25 07:23:45;;;;;;;24.90;13.07;;;3.70;99.90;;;;;;5050222;28;20163;-65
2022/12/25 07:26:11;;;;;;;21.83;10.80;;;4.00;99.90;;;;;;5049878;28;20947;-66
2022/12/25 07:28:37;;;;;;;26.37;11.17;;;3.90;99.90;;;;;;5049436;28;20425;-65
2022/12/25 07:31:15;;;;;;;23.83;11.07;;;3.90;99.90;;;;;;5050093;28;20413;-66
2022/12/25 07:33:41;;;;;;;19.03;9.77;;;3.90;99.90;;;;;;5050120;28;20404;-66
2022/12/25 07:36:07;;;;;;;18.70;10.33;;;3.90;99.90;;;;;;5049836;28;20429;-66
2022/12/25 07:38:33;;;;;;;17.00;8.67;;;3.90;99.90;;;;;;5050190;28;20477;-66
2022/12/25 07:40:59;;;;;;;15.90;10.23;;;4.00;99.90;;;;;;5050067;28;20935;-66
2022/12/25 07:43:25;;;;;;;24.33;10.10;;;4.00;99.90;;;;;;5050050;28;20227;-66
2022/12/25 07:45:59;;;;;;;18.33;9.20;;;4.00;99.90;;;;;;5049922;28;20634;-66
2022/12/25 07:48:26;;;;;;;20.07;9.70;;;3.90;99.90;;;;;;5045427;28;20432;-67
2022/12/25 07:51:11;;;;;;;20.60;8.57;;;3.90;99.90;;;;;;5049976;28;20416;-66
2022/12/25 07:53:38;;;;;;;18.30;9.13;;;3.90;99.90;;;;;;5050030;28;20406;-66
2022/12/25 07:56:07;;;;;;;17.43;8.60;;;3.80;99.90;;;;;;5050067;28;20432;-67
2022/12/25 07:58:33;;;;;;;10.63;7.60;;;3.80;99.90;;;;;;5050046;28;20775;-67
2022/12/25 08:01:10;;;;;;;10.53;7.67;;;3.80;99.90;;;;;;5049816;28;21049;-67
2022/12/25 08:03:35;;;;;;;12.73;6.97;;;3.80;99.90;;;;;;5050331;28;20409;-66
2022/12/25 08:06:04;;;;;;;16.57;6.43;;;3.80;99.90;;;;;;5050145;28;20420;-66
2022/12/25 08:08:30;;;;;;;15.93;7.80;;;3.70;99.90;;;;;;5054353;28;20261;-67
2022/12/25 08:10:56;;;;;;;14.90;6.83;;;3.80;99.90;;;;;;5052518;28;20508;-66
2022/12/25 08:13:22;;;;;;;17.13;7.83;;;3.80;99.90;;;;;;5036127;28;20516;-66
2022/12/25 08:15:47;;;;;;;16.70;8.20;;;3.90;99.90;;;;;;5053593;28;20635;-67
2022/12/25 08:18:13;;;;;;;17.77;8.40;;;3.90;99.90;;;;;;5054000;28;20533;-66
2022/12/25 08:20:39;;;;;;;16.80;8.97;;;3.90;99.90;;;;;;5053428;28;20190;-66
2022/12/25 08:23:04;;;;;;;11.10;6.73;;;4.00;99.90;;;;;;5053489;28;20225;-66
2022/12/25 08:25:30;;;;;;;10.47;7.30;;;4.00;99.90;;;;;;5054040;28;20224;-67
2022/12/25 08:27:56;;;;;;;15.63;7.00;;;4.00;99.90;;;;;;5035364;28;20282;-67
2022/12/25 08:30:21;;;;;;;19.33;7.50;;;4.00;99.90;;;;;;5053242;28;20194;-67
2022/12/25 08:32:47;;;;;;;15.23;8.70;;;4.00;99.90;;;;;;5053407;28;20641;-67
2022/12/25 08:35:13;;;;;;;14.53;8.70;;;4.10;99.90;;;;;;5045626;28;20198;-66
2022/12/25 08:37:38;;;;;;;13.67;6.80;;;4.10;99.90;;;;;;5054712;28;20201;-67
2022/12/25 08:40:05;;;;;;;12.97;7.47;;;4.10;99.90;;;;;;5051799;28;20649;-67
2022/12/25 08:42:31;;;;;;;13.03;7.60;;;4.10;99.90;;;;;;5053436;28;20163;-66
2022/12/25 08:44:56;;;;;;;15.37;9.60;;;4.10;99.90;;;;;;5051908;28;20421;-62
2022/12/25 08:47:22;;;;;;;12.50;7.40;;;4.40;99.90;;;;;;5052958;28;20210;-66
2022/12/25 08:49:47;;;;;;;12.60;7.83;;;4.30;99.90;;;;;;5053704;28;20520;-65
2022/12/25 08:52:13;;;;;;;17.17;10.63;;;4.20;99.90;;;;;;5052704;28;20182;-66
2022/12/25 08:54:38;;;;;;;18.27;9.73;;;4.40;99.90;;;;;;5052788;28;20246;-68
2022/12/25 08:57:04;;;;;;;16.47;9.93;;;4.60;99.90;;;;;;5050859;28;20199;-67
2022/12/25 08:59:30;;;;;;;19.73;9.43;;;4.70;99.90;;;;;;5052713;28;20175;-66
2022/12/25 09:01:55;;;;;;;18.07;10.30;;;4.70;99.90;;;;;;5052450;28;20298;-66
2022/12/25 09:04:21;;;;;;;29.53;10.40;;;4.70;99.90;;;;;;5052670;28;20911;-67
2022/12/25 09:06:47;;;;;;;20.70;8.07;;;4.80;99.90;;;;;;5052314;28;20242;-66
2022/12/25 09:09:12;;;;;;;22.67;9.23;;;4.70;99.90;;;;;;5081860;23;20305;-68
2022/12/25 09:11:38;;;;;;;27.30;9.30;;;4.70;99.90;;;;;;5052837;28;20171;-69
2022/12/25 09:14:03;;;;;;;16.37;9.20;;;4.60;99.90;;;;;;5049946;28;20665;-66
2022/12/25 09:16:29;;;;;;;13.47;6.43;;;4.60;99.90;;;;;;5051014;28;20202;-66
2022/12/25 09:18:57;;;;;;;14.43;7.30;;;4.60;99.90;;;;;;5052928;28;20425;-68
2022/12/25 09:21:22;;;;;;;16.20;9.07;;;4.60;99.90;;;;;;5045503;28;20203;-67
2022/12/25 09:23:48;;;;;;;19.67;8.73;;;4.60;99.90;;;;;;5053304;28;20482;-67
2022/12/25 09:26:15;;;;;;;14.20;7.23;;;4.60;99.90;;;;;;5053117;28;20182;-67
2022/12/25 09:28:41;;;;;;;13.70;9.10;;;4.60;99.90;;;;;;5053147;28;20248;-67
2022/12/25 09:31:07;;;;;;;20.87;8.40;;;4.60;99.90;;;;;;5052533;28;20452;-67
2022/12/25 09:33:33;;;;;;;17.30;7.57;;;4.60;99.90;;;;;;5049881;28;20919;-70
2022/12/25 09:36:05;;;;;;;11.30;7.50;;;4.60;99.90;;;;;;5052341;28;20182;-69
2022/12/25 09:38:30;;;;;;;12.27;7.30;;;4.60;99.90;;;;;;5046565;28;20470;-69
2022/12/25 09:40:59;;;;;;;16.87;7.67;;;4.70;99.90;;;;;;5053238;28;20461;-67
2022/12/25 09:43:27;;;;;;;17.03;7.20;;;4.70;99.90;;;;;;5053180;28;20560;-67
2022/12/25 09:45:53;;;;;;;14.83;8.87;;;4.80;99.90;;;;;;5053239;28;20412;-67
2022/12/25 09:48:19;;;;;;;17.23;7.80;;;5.00;99.90;;;;;;5053029;28;20416;-67
2022/12/25 09:50:58;;;;;;;16.27;9.27;;;5.00;99.90;;;;;;5053758;28;20778;-69
2022/12/25 09:53:28;;;;;;;13.07;7.97;;;5.10;99.90;;;;;;5052924;28;20224;-68
2022/12/25 09:56:07;;;;;;;12.87;8.23;;;5.10;99.90;;;;;;5053185;28;20421;-67
2022/12/25 09:58:33;;;;;;;17.90;7.97;;;5.20;99.90;;;;;;5046790;28;20912;-66
2022/12/25 10:01:11;;;;;;;14.67;8.47;;;5.20;99.90;;;;;;5050348;28;20544;-69
2022/12/25 10:04:10;;;;;;;16.10;8.83;;;5.20;99.90;;;;;;5053102;28;20441;-66
2022/12/25 10:07:00;;;;;;;24.63;10.13;;;5.00;99.90;;;;;;5050853;28;20402;-67
2022/12/25 10:09:44;;;;;;;17.07;9.10;;;5.10;99.90;;;;;;5052757;28;20457;-66
2022/12/25 10:12:26;;;;;;;19.93;11.03;;;5.20;99.90;;;;;;5052474;28;20409;-66
2022/12/25 10:15:19;;;;;;;17.23;10.70;;;5.10;99.90;;;;;;5053347;28;20425;-67
2022/12/25 10:17:55;;;;;;;20.97;9.40;;;5.10;99.90;;;;;;5048268;28;20824;-67
2022/12/25 10:20:44;;;;;;;21.60;11.13;;;5.00;99.90;;;;;;5048262;28;20463;-67
2022/12/25 10:23:24;;;;;;;23.37;8.80;;;5.10;99.90;;;;;;5052580;28;20413;-66
2022/12/25 10:25:52;;;;;;;16.23;9.33;;;5.10;99.90;;;;;;5053517;28;20481;-68
2022/12/25 10:28:41;;;;;;;18.17;10.50;;;4.90;99.90;;;;;;5052810;28;20979;-67
2022/12/25 10:31:34;;;;;;;25.90;11.30;;;4.90;99.90;;;;;;5052848;28;20500;-67
2022/12/25 10:34:00;;;;;;;20.00;11.90;;;4.90;99.90;;;;;;5050441;28;20440;-66
2022/12/25 10:36:28;;;;;;;23.10;11.20;;;5.00;99.90;;;;;;5052705;28;20770;-67
2022/12/25 10:38:54;;;;;;;23.97;12.63;;;4.70;99.90;;;;;;5052949;28;20434;-67
2022/12/25 10:41:38;;;;;;;20.00;10.50;;;4.80;99.90;;;;;;5051225;28;20493;-67
2022/12/25 10:44:19;;;;;;;19.93;12.03;;;4.90;99.90;;;;;;5052667;28;20503;-67
2022/12/25 10:46:56;;;;;;;27.40;12.13;;;5.00;99.90;;;;;;5052451;28;20401;-68
2022/12/25 10:49:24;;;;;;;19.10;10.00;;;5.10;99.90;;;;;;5046221;28;20440;-67
2022/12/25 10:51:50;;;;;;;26.37;11.30;;;5.20;99.90;;;;;;5048134;28;20458;-67
2022/12/25 10:54:26;;;;;;;20.87;11.57;;;5.00;99.90;;;;;;5052232;28;20414;-67
2022/12/25 10:57:08;;;;;;;22.17;11.87;;;5.00;99.90;;;;;;5048150;28;20408;-67
2022/12/25 10:59:41;;;;;;;14.17;9.37;;;4.90;99.90;;;;;;5050173;28;20425;-68
2022/12/25 11:02:15;;;;;;;15.77;8.57;;;4.80;99.90;;;;;;5051733;28;20963;-67
2022/12/25 11:04:41;;;;;;;22.80;11.87;;;4.70;99.90;;;;;;5052110;28;20472;-69
2022/12/25 11:07:19;;;;;;;21.03;10.43;;;4.70;99.90;;;;;;5046605;28;20403;-68
2022/12/25 11:09:55;;;;;;;14.70;9.40;;;4.80;99.90;;;;;;5051367;28;20577;-67
2022/12/25 11:12:29;;;;;;;20.40;10.87;;;4.90;99.90;;;;;;5051607;28;20405;-67
2022/12/25 11:14:58;;;;;;;18.90;10.13;;;5.00;99.90;;;;;;5051483;28;20417;-66
2022/12/25 11:17:26;;;;;;;19.43;10.37;;;5.10;99.90;;;;;;5051707;28;20520;-67
2022/12/25 11:19:55;;;;;;;17.30;8.67;;;5.00;99.90;;;;;;5051211;28;20441;-68
2022/12/25 11:22:21;;;;;;;28.80;12.20;;;4.90;99.90;;;;;;5048360;28;20453;-67
2022/12/25 11:24:46;;;;;;;20.60;9.93;;;5.00;99.90;;;;;;5050148;28;20451;-67
2022/12/25 11:27:27;;;;;;;18.77;10.20;;;5.10;99.90;;;;;;5051292;28;20486;-66
2022/12/25 11:30:02;;;;;;;21.50;10.30;;;5.10;99.90;;;;;;5051600;28;20191;-67
2022/12/25 11:32:43;;;;;;;18.23;10.97;;;5.10;99.90;;;;;;5047200;28;20427;-67
2022/12/25 11:35:15;;;;;;;18.47;9.70;;;5.10;99.90;;;;;;5051962;28;20466;-68
2022/12/25 11:37:45;;;;;;;15.97;10.17;;;5.20;99.90;;;;;;5051245;28;20808;-67
2022/12/25 11:40:33;;;;;;;22.27;11.53;;;5.10;99.90;;;;;;5043821;28;20434;-67
2022/12/25 11:43:19;;;;;;;23.00;10.87;;;5.20;99.90;;;;;;5047504;28;20457;-67
2022/12/25 11:45:55;;;;;;;16.50;10.10;;;5.30;99.90;;;;;;5051884;28;20413;-67
2022/12/25 11:48:34;;;;;;;21.77;10.50;;;5.30;99.90;;;;;;5044136;28;20464;-69
2022/12/25 11:51:02;;;;;;;13.70;8.33;;;5.30;99.90;;;;;;5045404;28;20462;-68
2022/12/25 11:53:33;;;;;;;16.43;9.70;;;5.20;99.90;;;;;;5046587;28;20408;-67
2022/12/25 11:56:06;;;;;;;21.27;11.03;;;5.30;99.90;;;;;;5051689;28;20405;-67
2022/12/25 11:58:39;;;;;;;21.37;10.40;;;5.30;99.90;;;;;;5044923;28;20781;-67
2022/12/25 12:01:34;;;;;;;18.77;10.20;;;5.20;99.90;;;;;;5051313;28;20466;-68
2022/12/25 12:04:05;;;;;;;16.20;10.13;;;5.10;99.90;;;;;;5045047;28;20410;-67
2022/12/25 12:06:55;;;;;;;24.03;12.20;;;5.10;99.90;;;;;;5050548;28;20461;-67
2022/12/25 12:09:44;;;;;;;16.63;11.00;;;5.10;99.90;;;;;;5042698;28;20464;-67
2022/12/25 12:12:24;;;;;;;16.67;11.40;;;5.20;99.90;;;;;;5049954;28;20410;-67
2022/12/25 12:15:18;;;;;;;25.63;11.00;;;5.20;99.90;;;;;;5050070;28;20602;-67
2022/12/25 12:17:44;;;;;;;20.40;10.07;;;5.30;99.90;;;;;;5045498;28;20414;-68
2022/12/25 12:20:31;;;;;;;22.10;11.10;;;5.30;99.90;;;;;;5050734;28;20768;-68
2022/12/25 12:22:59;;;;;;;24.33;11.80;;;5.40;99.90;;;;;;5047932;28;20190;-67
2022/12/25 12:25:25;;;;;;;12.03;8.93;;;5.40;99.90;;;;;;5049453;28;20414;-67
2022/12/25 12:27:59;;;;;;;14.83;8.63;;;5.40;99.90;;;;;;5047062;28;20571;-67
2022/12/25 12:30:34;;;;;;;13.80;9.10;;;5.40;99.90;;;;;;5050688;28;20534;-68
2022/12/25 12:33:02;;;;;;;16.57;9.97;;;5.40;99.90;;;;;;5048874;28;20478;-67
2022/12/25 12:35:29;;;;;;;12.10;8.33;;;5.40;99.90;;;;;;5052219;28;20410;-67
2022/12/25 12:38:03;;;;;;;15.07;9.20;;;5.50;99.90;;;;;;5050897;28;20560;-67
2022/12/25 12:40:37;;;;;;;12.43;8.30;;;5.50;99.90;;;;;;5043253;28;20460;-66
2022/12/25 12:43:04;;;;;;;16.53;8.10;;;5.50;99.90;;;;;;5050791;28;20760;-66
2022/12/25 12:45:33;;;;;;;13.17;9.73;;;5.40;99.90;;;;;;5044131;28;20442;-67
2022/12/25 12:47:59;;;;;;;16.47;9.70;;;5.50;99.90;;;;;;5050503;28;20463;-67
2022/12/25 12:50:38;;;;;;;11.60;8.00;;;5.50;99.90;;;;;;5050394;28;20930;-67
2022/12/25 12:53:22;;;;;;;13.13;8.30;;;5.40;99.90;;;;;;5052700;28;20175;-67
2022/12/25 12:55:48;;;;;;;9.70;7.40;;;5.50;99.90;;;;;;5054673;28;20507;-67
2022/12/25 12:58:49;;;;;;;8.63;7.17;;;5.40;99.90;;;;;;5054740;28;20576;-66
2022/12/25 13:01:41;;;;;;;12.07;8.10;;;5.50;99.90;;;;;;5039494;28;20464;-67
2022/12/25 13:04:21;;;;;;;12.07;7.33;;;5.50;99.90;;;;;;5054217;28;20828;-67
2022/12/25 13:07:31;;;;;;;9.00;6.73;;;5.50;99.90;;;;;;5050183;28;20406;-67
2022/12/25 13:10:22;;;;;;;11.40;7.37;;;5.60;99.90;;;;;;4992345;28;20800;-66
2022/12/25 13:12:55;;;;;;;10.67;7.87;;;5.60;99.90;;;;;;5054441;28;20406;-67
2022/12/25 13:15:24;;;;;;;9.63;6.80;;;5.70;99.90;;;;;;5053249;28;20409;-68
2022/12/25 13:17:50;;;;;;;9.33;7.23;;;5.70;99.90;;;;;;5053720;28;20546;-67
2022/12/25 13:20:32;;;;;;;8.13;6.90;;;5.70;99.90;;;;;;5054254;28;20547;-67
2022/12/25 13:22:58;;;;;;;5.80;5.10;;;5.80;99.90;;;;;;5054066;28;20495;-66
2022/12/25 13:25:23;;;;;;;13.40;6.90;;;5.80;99.90;;;;;;5052745;28;20562;-66
2022/12/25 13:27:56;;;;;;;10.93;5.80;;;5.80;99.90;;;;;;5054257;28;20182;-67
2022/12/25 13:30:23;;;;;;;11.60;6.90;;;5.90;99.90;;;;;;5047002;28;20195;-66
2022/12/25 13:32:49;;;;;;;6.30;5.73;;;5.90;99.90;;;;;;5054080;28;20495;-66
2022/12/25 13:35:16;;;;;;;9.10;5.23;;;5.90;99.90;;;;;;5054065;28;20464;-67
2022/12/25 13:37:43;;;;;;;9.07;5.27;;;5.90;99.90;;;;;;5054240;28;20254;-67
2022/12/25 13:40:25;;;;;;;8.87;5.43;;;5.90;99.90;;;;;;5053817;28;20963;-69
2022/12/25 13:42:57;;;;;;;11.77;6.43;;;5.80;99.90;;;;;;5053658;28;20882;-67
2022/12/25 13:45:28;;;;;;;9.00;6.17;;;5.80;99.90;;;;;;5043970;28;20409;-66
2022/12/25 13:47:54;;;;;;;8.53;5.40;;;5.90;99.90;;;;;;5052290;28;20442;-67
2022/12/25 13:50:26;;;;;;;16.07;5.90;;;5.80;99.90;;;;;;5047679;28;20429;-66
2022/12/25 13:52:53;;;;;;;7.27;5.47;;;5.80;99.90;;;;;;5050894;28;20179;-67
2022/12/25 13:55:23;;;;;;;8.63;5.50;;;5.90;99.90;;;;;;5052333;28;20406;-66
2022/12/25 13:57:59;;;;;;;7.97;5.80;;;5.80;99.90;;;;;;5052214;28;20416;-66
2022/12/25 14:00:45;;;;;;;8.07;6.00;;;5.80;99.90;;;;;;5045566;28;20563;-66
2022/12/25 14:03:23;;;;;;;9.93;6.37;;;5.80;99.90;;;;;;5046432;28;20401;-67
2022/12/25 14:05:57;;;;;;;9.63;5.67;;;5.80;99.90;;;;;;5053024;28;20416;-67
2022/12/25 14:08:26;;;;;;;11.30;5.90;;;5.80;99.90;;;;;;5050765;28;20472;-67
2022/12/25 14:10:53;;;;;;;7.63;6.80;;;5.80;99.90;;;;;;5053528;28;20425;-67
2022/12/25 14:13:22;;;;;;;6.33;5.07;;;5.90;99.90;;;;;;5052619;28;20428;-67
2022/12/25 14:15:49;;;;;;;6.47;5.77;;;5.90;99.90;;;;;;5052950;28;20508;-67
2022/12/25 14:18:16;;;;;;;7.90;6.60;;;5.90;99.90;;;;;;5050304;28;20409;-67
2022/12/25 14:21:01;;;;;;;9.93;7.03;;;5.90;99.90;;;;;;5046924;28;20449;-66
2022/12/25 14:23:48;;;;;;;9.13;7.07;;;5.90;99.90;;;;;;5052636;28;20401;-67
2022/12/25 14:26:18;;;;;;;8.23;5.80;;;5.90;99.90;;;;;;5044210;28;20413;-66
2022/12/25 14:29:13;;;;;;;15.37;6.47;;;5.90;99.90;;;;;;5051715;28;20480;-67
2022/12/25 14:31:39;;;;;;;7.87;6.33;;;5.90;99.90;;;;;;5043813;28;20417;-67
2022/12/25 14:34:12;;;;;;;9.53;6.40;;;5.90;99.90;;;;;;5048033;28;20413;-67
2022/12/25 14:36:38;;;;;;;9.97;6.47;;;6.00;99.90;;;;;;5045951;28;20821;-67
2022/12/25 14:39:06;;;;;;;11.17;6.83;;;6.00;99.90;;;;;;5033648;28;20433;-67
2022/12/25 14:41:37;;;;;;;10.03;7.67;;;6.00;99.90;;;;;;5051882;28;20454;-67
2022/12/25 14:44:31;;;;;;;11.80;7.03;;;6.00;99.90;;;;;;5051883;28;20409;-67
2022/12/25 14:47:23;;;;;;;6.53;5.77;;;6.00;99.90;;;;;;5041863;28;20708;-67
2022/12/25 14:49:49;;;;;;;10.30;6.30;;;6.00;99.90;;;;;;5046415;28;20524;-67